createdAt,value
2017-02-22T00:00:11.595Z,61.74
2017-02-22T00:01:13.071Z,61.77
2017-02-22T00:02:12.287Z,61.75
2017-02-22T00:03:13.763Z,61.79
2017-02-22T00:04:13.685Z,61.77
2017-02-22T00:05:14.241Z,61.80
2017-02-22T00:06:13.422Z,61.83
2017-02-22T00:07:13.669Z,61.86
2017-02-22T00:08:12.864Z,61.81
2017-02-22T00:09:11.711Z,61.82
2017-02-22T00:10:13.528Z,60.82
2017-02-22T00:11:12.542Z,60.63
2017-02-22T00:12:13.121Z,60.55
2017-02-22T00:13:12.237Z,60.57
2017-02-22T00:14:12.462Z,60.45
2017-02-22T00:15:12.626Z,61.41
2017-02-22T00:16:12.699Z,61.60
2017-02-22T00:17:13.779Z,61.73
2017-02-22T00:18:14.336Z,61.79
2017-02-22T00:19:12.975Z,61.77
2017-02-22T00:20:13.059Z,61.79
2017-02-22T00:21:12.830Z,61.84
2017-02-22T00:22:12.860Z,61.81
2017-02-22T00:23:12.830Z,61.88
2017-02-22T00:24:13.609Z,61.88
2017-02-22T00:25:13.022Z,61.89
2017-02-22T00:26:13.107Z,61.84
2017-02-22T00:27:12.409Z,61.91
2017-02-22T00:28:12.403Z,61.89
2017-02-22T00:29:12.526Z,61.87
2017-02-22T00:30:12.578Z,61.88
2017-02-22T00:31:13.382Z,61.90
2017-02-22T00:32:12.444Z,61.98
2017-02-22T00:33:12.409Z,61.93
2017-02-22T00:34:13.186Z,61.92
2017-02-22T00:35:12.319Z,62.01
2017-02-22T00:36:12.888Z,61.89
2017-02-22T00:37:13.071Z,61.93
2017-02-22T00:38:12.209Z,61.97
2017-02-22T00:39:11.116Z,61.97
2017-02-22T00:40:12.810Z,60.94
2017-02-22T00:41:13.475Z,60.79
2017-02-22T00:42:14.204Z,60.67
2017-02-22T00:43:13.007Z,60.60
2017-02-22T00:44:13.551Z,60.61
2017-02-22T00:45:12.708Z,60.53
2017-02-22T00:46:12.885Z,60.77
2017-02-22T00:47:13.518Z,61.56
2017-02-22T00:48:11.595Z,61.78
2017-02-22T00:49:12.639Z,61.92
2017-02-22T00:50:12.715Z,61.95
2017-02-22T00:51:12.809Z,61.93
2017-02-22T00:52:13.765Z,62.00
2017-02-22T00:53:12.858Z,62.10
2017-02-22T00:54:13.548Z,62.02
2017-02-22T00:55:13.066Z,62.05
2017-02-22T00:56:10.954Z,62.00
2017-02-22T00:57:13.153Z,61.16
2017-02-22T00:58:12.393Z,61.80
2017-02-22T00:59:12.388Z,61.93
2017-02-22T01:00:13.497Z,62.01
2017-02-22T01:01:15.279Z,62.01
2017-02-22T01:02:13.410Z,62.08
2017-02-22T01:03:13.023Z,62.05
2017-02-22T01:04:12.449Z,62.07
2017-02-22T01:05:12.946Z,62.04
2017-02-22T01:06:14.623Z,62.09
2017-02-22T01:07:11.710Z,62.09
2017-02-22T01:08:13.587Z,61.10
2017-02-22T01:09:15.094Z,60.92
2017-02-22T01:10:13.190Z,60.91
2017-02-22T01:11:14.682Z,60.93
2017-02-22T01:12:15.366Z,60.80
2017-02-22T01:13:13.674Z,61.10
2017-02-22T01:14:14.605Z,61.79
2017-02-22T01:15:12.806Z,61.94
2017-02-22T01:16:13.836Z,61.99
2017-02-22T01:17:13.578Z,62.07
2017-02-22T01:18:12.705Z,62.07
2017-02-22T01:19:15.967Z,62.10
2017-02-22T01:20:14.386Z,62.20
2017-02-22T01:21:12.867Z,62.19
2017-02-22T01:22:14.472Z,62.22
2017-02-22T01:23:13.630Z,62.17
2017-02-22T01:24:13.011Z,62.28
2017-02-22T01:25:14.171Z,62.20
2017-02-22T01:26:15.118Z,62.19
2017-02-22T01:27:14.486Z,62.18
2017-02-22T01:28:13.803Z,62.20
2017-02-22T01:29:16.437Z,62.29
2017-02-22T01:30:14.710Z,62.33
2017-02-22T01:31:13.817Z,62.24
2017-02-22T01:32:13.305Z,62.20
2017-02-22T01:33:14.972Z,62.23
2017-02-22T01:34:15.737Z,62.24
2017-02-22T01:35:14.448Z,62.26
2017-02-22T01:36:14.435Z,62.24
2017-02-22T01:37:10.582Z,62.27
2017-02-22T01:38:13.958Z,62.26
2017-02-22T01:39:13.607Z,62.29
2017-02-22T01:40:13.421Z,62.26
2017-02-22T01:41:12.728Z,62.24
2017-02-22T01:42:15.576Z,62.32
2017-02-22T01:43:15.360Z,62.29
2017-02-22T01:44:12.565Z,62.26
2017-02-22T01:45:13.268Z,62.26
2017-02-22T01:46:15.167Z,62.37
2017-02-22T01:47:14.185Z,62.29
2017-02-22T01:48:12.095Z,62.30
2017-02-22T01:49:12.808Z,62.37
2017-02-22T01:50:14.188Z,62.32
2017-02-22T01:51:13.920Z,62.29
2017-02-22T01:52:13.940Z,62.33
2017-02-22T01:53:12.398Z,62.32
2017-02-22T01:54:13.943Z,62.35
2017-02-22T01:55:13.570Z,62.34
2017-02-22T01:56:12.648Z,62.32
2017-02-22T01:57:12.886Z,62.39
2017-02-22T01:58:15.028Z,62.39
2017-02-22T01:59:13.463Z,62.39
2017-02-22T02:00:13.528Z,62.43
2017-02-22T02:01:13.367Z,62.41
2017-02-22T02:02:13.084Z,62.40
2017-02-22T02:03:13.395Z,62.43
2017-02-22T02:04:13.635Z,62.43
2017-02-22T02:05:14.244Z,62.44
2017-02-22T02:06:15.067Z,62.52
2017-02-22T02:07:12.563Z,62.41
2017-02-22T02:08:13.057Z,62.43
2017-02-22T02:09:14.313Z,62.48
2017-02-22T02:10:12.357Z,62.45
2017-02-22T02:11:14.579Z,62.49
2017-02-22T02:12:14.139Z,62.49
2017-02-22T02:13:15.214Z,62.54
2017-02-22T02:14:11.606Z,62.49
2017-02-22T02:15:12.719Z,61.52
2017-02-22T02:16:12.910Z,61.67
2017-02-22T02:17:14.785Z,62.23
2017-02-22T02:18:11.690Z,62.41
2017-02-22T02:19:13.276Z,61.47
2017-02-22T02:20:13.148Z,61.50
2017-02-22T02:21:12.148Z,62.23
2017-02-22T02:22:12.858Z,62.40
2017-02-22T02:23:13.547Z,62.50
2017-02-22T02:24:12.671Z,62.47
2017-02-22T02:25:13.825Z,62.51
2017-02-22T02:26:13.534Z,62.43
2017-02-22T02:27:14.478Z,61.70
2017-02-22T02:28:13.286Z,62.40
2017-02-22T02:29:14.826Z,62.54
2017-02-22T02:30:13.658Z,62.75
2017-02-22T02:31:13.137Z,62.60
2017-02-22T02:32:12.168Z,62.61
2017-02-22T02:33:12.874Z,62.66
2017-02-22T02:34:14.284Z,61.65
2017-02-22T02:35:14.414Z,61.77
2017-02-22T02:36:12.447Z,62.35
2017-02-22T02:37:13.107Z,62.53
2017-02-22T02:38:09.779Z,62.64
2017-02-22T02:39:15.416Z,62.61
2017-02-22T02:40:13.723Z,62.71
2017-02-22T02:41:13.745Z,62.67
2017-02-22T02:42:13.416Z,62.77
2017-02-22T02:43:13.397Z,62.73
2017-02-22T02:44:13.947Z,62.67
2017-02-22T02:45:12.935Z,62.68
2017-02-22T02:46:14.182Z,62.67
2017-02-22T02:47:13.377Z,62.97
2017-02-22T02:48:12.645Z,62.71
2017-02-22T02:49:12.868Z,62.69
2017-02-22T02:50:14.282Z,62.71
2017-02-22T02:51:13.502Z,62.73
2017-02-22T02:52:13.452Z,62.78
2017-02-22T02:53:12.927Z,62.78
2017-02-22T02:54:14.585Z,62.74
2017-02-22T02:55:14.344Z,62.80
2017-02-22T02:56:13.238Z,62.78
2017-02-22T02:57:15.568Z,62.80
2017-02-22T02:58:12.685Z,62.77
2017-02-22T02:59:13.316Z,62.74
2017-02-22T03:00:14.097Z,62.79
2017-02-22T03:01:13.479Z,62.83
2017-02-22T03:02:13.194Z,62.79
2017-02-22T03:03:12.870Z,62.82
2017-02-22T03:04:13.258Z,62.78
2017-02-22T03:05:12.362Z,63.00
2017-02-22T03:06:12.588Z,62.79
2017-02-22T03:07:12.755Z,62.78
2017-02-22T03:08:14.110Z,62.85
2017-02-22T03:09:13.808Z,62.85
2017-02-22T03:10:13.770Z,62.88
2017-02-22T03:11:12.914Z,62.95
2017-02-22T03:12:14.104Z,62.94
2017-02-22T03:13:12.620Z,62.93
2017-02-22T03:14:12.637Z,62.92
2017-02-22T03:15:13.085Z,62.90
2017-02-22T03:16:12.865Z,62.87
2017-02-22T03:17:13.791Z,62.96
2017-02-22T03:18:11.786Z,62.99
2017-02-22T03:19:15.521Z,62.02
2017-02-22T03:20:13.866Z,61.97
2017-02-22T03:21:13.566Z,61.63
2017-02-22T03:22:13.018Z,61.61
2017-02-22T03:23:12.146Z,61.57
2017-02-22T03:24:12.949Z,61.53
2017-02-22T03:25:11.995Z,61.55
2017-02-22T03:26:12.230Z,61.65
2017-02-22T03:27:13.272Z,61.49
2017-02-22T03:28:13.056Z,62.47
2017-02-22T03:29:13.353Z,62.75
2017-02-22T03:30:12.415Z,62.83
2017-02-22T03:31:13.485Z,62.85
2017-02-22T03:32:13.135Z,62.89
2017-02-22T03:33:11.067Z,62.90
2017-02-22T03:34:12.923Z,62.92
2017-02-22T03:35:13.973Z,62.94
2017-02-22T03:36:12.755Z,62.95
2017-02-22T03:37:11.477Z,62.96
2017-02-22T03:38:13.415Z,62.92
2017-02-22T03:39:11.596Z,62.75
2017-02-22T03:40:12.809Z,62.04
2017-02-22T03:41:12.694Z,61.84
2017-02-22T03:42:12.842Z,61.66
2017-02-22T03:43:13.644Z,61.67
2017-02-22T03:44:15.385Z,61.65
2017-02-22T03:45:13.161Z,61.65
2017-02-22T03:46:12.613Z,61.52
2017-02-22T03:47:13.028Z,61.59
2017-02-22T03:48:13.242Z,61.61
2017-02-22T03:49:12.346Z,61.56
2017-02-22T03:50:14.117Z,61.60
2017-02-22T03:51:13.467Z,61.51
2017-02-22T03:52:12.343Z,61.60
2017-02-22T03:53:12.955Z,61.89
2017-02-22T03:54:12.022Z,62.62
2017-02-22T03:55:12.873Z,62.79
2017-02-22T03:56:13.576Z,62.92
2017-02-22T03:57:13.273Z,62.91
2017-02-22T03:58:13.062Z,63.03
2017-02-22T03:59:12.316Z,63.03
2017-02-22T04:00:14.129Z,63.00
2017-02-22T04:01:14.111Z,63.12
2017-02-22T04:02:12.800Z,63.03
2017-02-22T04:03:15.036Z,62.99
2017-02-22T04:04:11.323Z,62.91
2017-02-22T04:05:12.792Z,62.05
2017-02-22T04:06:12.899Z,61.89
2017-02-22T04:07:11.683Z,61.79
2017-02-22T04:08:12.658Z,61.72
2017-02-22T04:09:15.906Z,61.68
2017-02-22T04:10:13.526Z,61.74
2017-02-22T04:11:12.684Z,61.71
2017-02-22T04:12:13.504Z,61.88
2017-02-22T04:13:12.607Z,62.68
2017-02-22T04:14:13.573Z,62.89
2017-02-22T04:15:13.170Z,63.03
2017-02-22T04:16:13.353Z,63.03
2017-02-22T04:17:11.385Z,63.06
2017-02-22T04:18:13.338Z,63.09
2017-02-22T04:19:13.003Z,63.10
2017-02-22T04:20:12.556Z,63.15
2017-02-22T04:21:11.496Z,63.17
2017-02-22T04:22:13.313Z,63.17
2017-02-22T04:23:13.975Z,63.15
2017-02-22T04:24:12.115Z,63.28
2017-02-22T04:25:13.005Z,63.16
2017-02-22T04:26:13.778Z,63.19
2017-02-22T04:27:13.049Z,63.32
2017-02-22T04:28:10.524Z,63.28
2017-02-22T04:29:12.972Z,63.19
2017-02-22T04:30:12.142Z,63.16
2017-02-22T04:31:13.098Z,63.20
2017-02-22T04:32:12.827Z,63.23
2017-02-22T04:33:12.927Z,63.26
2017-02-22T04:34:12.943Z,63.28
2017-02-22T04:35:12.741Z,63.21
2017-02-22T04:36:12.900Z,63.24
2017-02-22T04:37:12.903Z,63.19
2017-02-22T04:38:13.613Z,63.27
2017-02-22T04:39:13.199Z,63.21
2017-02-22T04:40:13.606Z,63.21
2017-02-22T04:41:12.615Z,63.20
2017-02-22T04:42:12.658Z,63.20
2017-02-22T04:43:11.543Z,63.28
2017-02-22T04:44:12.664Z,63.26
2017-02-22T04:45:13.474Z,63.25
2017-02-22T04:46:12.651Z,63.23
2017-02-22T04:47:14.223Z,63.33
2017-02-22T04:48:13.058Z,63.24
2017-02-22T04:49:13.024Z,63.25
2017-02-22T04:50:13.929Z,63.23
2017-02-22T04:51:12.055Z,63.20
2017-02-22T04:52:11.985Z,63.29
2017-02-22T04:53:10.893Z,63.27
2017-02-22T04:54:13.494Z,63.27
2017-02-22T04:55:15.106Z,63.30
2017-02-22T04:56:13.994Z,63.26
2017-02-22T04:57:12.743Z,63.35
2017-02-22T04:58:12.906Z,63.26
2017-02-22T04:59:12.958Z,63.25
2017-02-22T05:00:12.875Z,63.34
2017-02-22T05:01:11.887Z,63.27
2017-02-22T05:02:12.767Z,63.29
2017-02-22T05:03:14.268Z,63.36
2017-02-22T05:04:12.408Z,63.30
2017-02-22T05:05:14.991Z,63.28
2017-02-22T05:06:10.895Z,63.26
2017-02-22T05:07:12.024Z,63.27
2017-02-22T05:08:12.775Z,63.30
2017-02-22T05:09:12.976Z,63.49
2017-02-22T05:10:12.928Z,63.30
2017-02-22T05:11:12.829Z,63.35
2017-02-22T05:12:13.309Z,63.34
2017-02-22T05:13:12.951Z,63.37
2017-02-22T05:14:10.191Z,63.32
2017-02-22T05:15:12.322Z,63.36
2017-02-22T05:16:13.113Z,63.42
2017-02-22T05:17:12.974Z,63.32
2017-02-22T05:18:12.962Z,63.43
2017-02-22T05:19:12.119Z,63.45
2017-02-22T05:20:13.891Z,63.47
2017-02-22T05:21:13.031Z,63.53
2017-02-22T05:22:12.904Z,63.41
2017-02-22T05:23:14.516Z,63.59
2017-02-22T05:24:13.087Z,63.77
2017-02-22T05:25:14.078Z,63.75
2017-02-22T05:26:12.205Z,63.63
2017-02-22T05:27:13.212Z,63.77
2017-02-22T05:28:12.388Z,62.85
2017-02-22T05:29:13.306Z,62.31
2017-02-22T05:30:10.322Z,62.28
2017-02-22T05:31:12.271Z,62.30
2017-02-22T05:32:13.297Z,62.19
2017-02-22T05:33:13.339Z,62.22
2017-02-22T05:34:15.214Z,62.05
2017-02-22T05:35:12.957Z,62.10
2017-02-22T05:36:12.393Z,62.13
2017-02-22T05:37:13.416Z,62.02
2017-02-22T05:38:11.464Z,61.98
2017-02-22T05:39:13.098Z,61.97
2017-02-22T05:40:12.845Z,62.04
2017-02-22T05:41:13.676Z,62.02
2017-02-22T05:42:14.242Z,62.05
2017-02-22T05:43:12.807Z,62.88
2017-02-22T05:44:13.719Z,63.14
2017-02-22T05:45:13.449Z,63.22
2017-02-22T05:46:13.247Z,63.32
2017-02-22T05:47:12.722Z,63.28
2017-02-22T05:48:14.302Z,63.36
2017-02-22T05:49:14.196Z,63.34
2017-02-22T05:50:13.130Z,63.43
2017-02-22T05:51:13.917Z,63.36
2017-02-22T05:52:12.994Z,63.37
2017-02-22T05:53:12.938Z,63.36
2017-02-22T05:54:13.044Z,63.39
2017-02-22T05:55:12.993Z,63.40
2017-02-22T05:56:12.138Z,63.41
2017-02-22T05:57:11.435Z,63.45
2017-02-22T05:58:13.147Z,62.61
2017-02-22T05:59:13.184Z,63.23
2017-02-22T06:00:11.508Z,63.35
2017-02-22T06:01:13.386Z,63.37
2017-02-22T06:02:14.510Z,63.39
2017-02-22T06:03:13.627Z,63.41
2017-02-22T06:04:12.697Z,63.41
2017-02-22T06:05:12.787Z,63.46
2017-02-22T06:06:13.310Z,63.42
2017-02-22T06:07:13.191Z,63.48
2017-02-22T06:08:12.751Z,63.42
2017-02-22T06:09:13.225Z,63.46
2017-02-22T06:10:14.956Z,63.50
2017-02-22T06:11:12.127Z,63.46
2017-02-22T06:12:13.028Z,63.55
2017-02-22T06:13:15.417Z,63.48
2017-02-22T06:14:14.414Z,63.43
2017-02-22T06:15:12.381Z,63.46
2017-02-22T06:16:14.250Z,63.48
2017-02-22T06:17:12.356Z,63.46
2017-02-22T06:18:12.350Z,63.49
2017-02-22T06:19:13.020Z,63.44
2017-02-22T06:20:13.429Z,63.41
2017-02-22T06:21:12.544Z,63.40
2017-02-22T06:22:12.693Z,63.46
2017-02-22T06:23:14.011Z,63.43
2017-02-22T06:24:12.093Z,63.47
2017-02-22T06:25:12.924Z,63.79
2017-02-22T06:26:12.974Z,63.43
2017-02-22T06:27:13.304Z,63.59
2017-02-22T06:28:13.157Z,63.45
2017-02-22T06:29:12.156Z,63.64
2017-02-22T06:30:12.151Z,63.79
2017-02-22T06:31:12.185Z,64.43
2017-02-22T06:32:13.043Z,64.30
2017-02-22T06:33:12.910Z,64.23
2017-02-22T06:34:12.024Z,63.93
2017-02-22T06:35:13.181Z,63.92
2017-02-22T06:36:12.853Z,63.89
2017-02-22T06:37:13.081Z,63.32
2017-02-22T06:38:13.721Z,64.80
2017-02-22T06:39:10.868Z,64.93
2017-02-22T06:40:12.267Z,64.51
2017-02-22T06:41:13.269Z,63.97
2017-02-22T06:42:12.348Z,64.28
2017-02-22T06:43:13.232Z,64.64
2017-02-22T06:44:12.847Z,64.29
2017-02-22T06:45:13.475Z,64.29
2017-02-22T06:46:15.332Z,64.92
2017-02-22T06:47:12.456Z,64.58
2017-02-22T06:48:14.153Z,64.99
2017-02-22T06:49:12.309Z,64.78
2017-02-22T06:50:11.323Z,65.01
2017-02-22T06:51:13.555Z,64.03
2017-02-22T06:52:14.261Z,64.88
2017-02-22T06:53:14.158Z,65.14
2017-02-22T06:54:12.380Z,65.14
2017-02-22T06:55:11.750Z,65.16
2017-02-22T06:56:12.631Z,65.31
2017-02-22T06:57:13.537Z,65.22
2017-02-22T06:58:12.629Z,65.15
2017-02-22T06:59:13.446Z,65.16
2017-02-22T07:00:12.647Z,65.10
2017-02-22T07:01:13.479Z,65.01
2017-02-22T07:02:13.206Z,64.97
2017-02-22T07:03:13.570Z,64.99
2017-02-22T07:04:12.718Z,64.94
2017-02-22T07:05:14.407Z,64.92
2017-02-22T07:06:12.383Z,64.98
2017-02-22T07:07:13.874Z,64.97
2017-02-22T07:08:12.948Z,64.90
2017-02-22T07:09:13.591Z,64.92
2017-02-22T07:10:12.642Z,64.95
2017-02-22T07:11:09.887Z,64.98
2017-02-22T07:12:13.635Z,64.92
2017-02-22T07:13:14.578Z,64.92
2017-02-22T07:14:11.322Z,64.85
2017-02-22T07:15:13.712Z,64.87
2017-02-22T07:16:14.627Z,64.88
2017-02-22T07:17:14.088Z,64.88
2017-02-22T07:18:13.854Z,64.87
2017-02-22T07:19:13.793Z,64.88
2017-02-22T07:20:12.935Z,64.80
2017-02-22T07:21:13.620Z,64.82
2017-02-22T07:22:13.540Z,64.76
2017-02-22T07:23:14.317Z,64.79
2017-02-22T07:24:13.046Z,64.72
2017-02-22T07:25:11.084Z,64.74
2017-02-22T07:26:12.830Z,64.70
2017-02-22T07:27:13.536Z,64.66
2017-02-22T07:28:12.653Z,64.65
2017-02-22T07:29:13.484Z,64.74
2017-02-22T07:30:14.388Z,64.44
2017-02-22T07:31:12.423Z,64.56
2017-02-22T07:32:12.509Z,64.38
2017-02-22T07:33:14.307Z,64.36
2017-02-22T07:34:12.919Z,64.26
2017-02-22T07:35:12.507Z,64.09
2017-02-22T07:36:12.478Z,64.11
2017-02-22T07:37:13.324Z,63.89
2017-02-22T07:38:12.467Z,63.87
2017-02-22T07:39:12.717Z,63.72
2017-02-22T07:40:13.485Z,63.67
2017-02-22T07:41:12.627Z,63.64
2017-02-22T07:42:12.776Z,63.60
2017-02-22T07:43:11.740Z,63.57
2017-02-22T07:44:13.531Z,62.52
2017-02-22T07:45:13.296Z,62.17
2017-02-22T07:46:11.442Z,62.14
2017-02-22T07:47:12.766Z,62.18
2017-02-22T07:48:16.548Z,63.03
2017-02-22T07:49:13.060Z,63.24
2017-02-22T07:50:11.026Z,63.30
2017-02-22T07:51:12.147Z,63.35
2017-02-22T07:52:13.310Z,63.35
2017-02-22T07:53:12.399Z,63.38
2017-02-22T07:54:11.438Z,63.36
2017-02-22T07:55:12.574Z,63.35
2017-02-22T07:56:12.534Z,63.35
2017-02-22T07:57:14.345Z,63.32
2017-02-22T07:58:12.856Z,63.31
2017-02-22T07:59:11.725Z,63.29
2017-02-22T08:00:14.545Z,63.37
2017-02-22T08:01:12.889Z,63.39
2017-02-22T08:02:14.565Z,63.34
2017-02-22T08:03:12.768Z,63.35
2017-02-22T08:04:14.358Z,63.33
2017-02-22T08:05:12.467Z,63.33
2017-02-22T08:06:12.471Z,63.33
2017-02-22T08:07:14.233Z,63.32
2017-02-22T08:08:11.182Z,63.15
2017-02-22T08:09:12.658Z,62.34
2017-02-22T08:10:12.801Z,62.03
2017-02-22T08:11:13.107Z,62.20
2017-02-22T08:12:12.175Z,62.86
2017-02-22T08:13:12.847Z,63.03
2017-02-22T08:14:14.002Z,63.11
2017-02-22T08:15:12.750Z,63.08
2017-02-22T08:16:12.700Z,63.09
2017-02-22T08:17:12.927Z,63.13
2017-02-22T08:18:12.416Z,63.09
2017-02-22T08:19:12.464Z,63.11
2017-02-22T08:20:13.100Z,63.12
2017-02-22T08:21:12.336Z,63.12
2017-02-22T08:22:12.372Z,63.13
2017-02-22T08:23:13.648Z,63.13
2017-02-22T08:24:12.614Z,63.12
2017-02-22T08:25:12.753Z,63.12
2017-02-22T08:26:12.886Z,63.12
2017-02-22T08:27:13.095Z,63.10
2017-02-22T08:28:12.119Z,63.08
2017-02-22T08:29:12.721Z,63.05
2017-02-22T08:30:12.680Z,63.04
2017-02-22T08:31:12.727Z,63.01
2017-02-22T08:32:13.391Z,62.96
2017-02-22T08:33:12.429Z,62.95
2017-02-22T08:34:13.128Z,62.96
2017-02-22T08:35:12.844Z,62.93
2017-02-22T08:36:12.936Z,62.90
2017-02-22T08:37:12.994Z,62.91
2017-02-22T08:38:12.806Z,62.90
2017-02-22T08:39:13.493Z,62.88
2017-02-22T08:40:12.617Z,62.86
2017-02-22T08:41:14.106Z,62.84
2017-02-22T08:42:12.680Z,62.81
2017-02-22T08:43:12.780Z,62.79
2017-02-22T08:44:12.925Z,62.78
2017-02-22T08:45:12.720Z,62.76
2017-02-22T08:46:12.778Z,62.75
2017-02-22T08:47:12.877Z,62.74
2017-02-22T08:48:13.587Z,62.72
2017-02-22T08:49:12.658Z,62.71
2017-02-22T08:50:13.410Z,62.70
2017-02-22T08:51:12.391Z,62.72
2017-02-22T08:52:12.369Z,62.70
2017-02-22T08:53:12.276Z,62.69
2017-02-22T08:54:12.922Z,62.67
2017-02-22T08:55:14.712Z,62.67
2017-02-22T08:56:13.616Z,62.66
2017-02-22T08:57:13.432Z,62.65
2017-02-22T08:58:11.692Z,62.64
2017-02-22T08:59:13.392Z,62.62
2017-02-22T09:00:12.496Z,62.62
2017-02-22T09:01:13.368Z,62.62
2017-02-22T09:02:12.404Z,62.62
2017-02-22T09:03:13.642Z,62.61
2017-02-22T09:04:13.294Z,62.59
2017-02-22T09:05:13.375Z,62.57
2017-02-22T09:06:13.113Z,62.57
2017-02-22T09:07:13.239Z,62.55
2017-02-22T09:08:12.338Z,62.55
2017-02-22T09:09:13.116Z,62.48
2017-02-22T09:10:12.940Z,61.54
2017-02-22T09:11:12.157Z,61.66
2017-02-22T09:12:12.883Z,62.22
2017-02-22T09:13:13.405Z,62.35
2017-02-22T09:14:12.372Z,62.40
2017-02-22T09:15:12.334Z,62.44
2017-02-22T09:16:12.748Z,62.44
2017-02-22T09:17:13.239Z,62.44
2017-02-22T09:18:12.361Z,62.45
2017-02-22T09:19:13.133Z,62.45
2017-02-22T09:20:12.986Z,62.44
2017-02-22T09:21:12.897Z,62.44
2017-02-22T09:22:12.945Z,62.44
2017-02-22T09:23:12.207Z,62.44
2017-02-22T09:24:13.925Z,62.44
2017-02-22T09:25:13.275Z,62.43
2017-02-22T09:26:12.243Z,62.42
2017-02-22T09:27:12.973Z,62.42
2017-02-22T09:28:12.347Z,62.41
2017-02-22T09:29:13.139Z,62.41
2017-02-22T09:30:12.834Z,62.39
2017-02-22T09:31:12.978Z,62.39
2017-02-22T09:32:12.879Z,62.38
2017-02-22T09:33:13.761Z,62.38
2017-02-22T09:34:14.495Z,62.40
2017-02-22T09:35:14.150Z,62.37
2017-02-22T09:36:12.189Z,62.37
2017-02-22T09:37:12.936Z,62.37
2017-02-22T09:38:12.131Z,62.38
2017-02-22T09:39:14.059Z,62.36
2017-02-22T09:40:13.155Z,62.36
2017-02-22T09:41:14.847Z,62.37
2017-02-22T09:42:13.577Z,62.37
2017-02-22T09:43:16.285Z,62.37
2017-02-22T09:44:11.386Z,62.36
2017-02-22T09:45:12.839Z,62.36
2017-02-22T09:46:14.571Z,62.36
2017-02-22T09:47:13.189Z,62.37
2017-02-22T09:48:12.151Z,62.37
2017-02-22T09:49:12.928Z,62.35
2017-02-22T09:50:10.940Z,62.37
2017-02-22T09:51:12.124Z,61.39
2017-02-22T09:52:12.107Z,61.15
2017-02-22T09:53:12.237Z,61.03
2017-02-22T09:54:14.784Z,60.99
2017-02-22T09:55:13.712Z,60.97
2017-02-22T09:56:13.403Z,60.96
2017-02-22T09:57:13.068Z,60.92
2017-02-22T09:58:11.976Z,60.95
2017-02-22T09:59:11.988Z,60.96
2017-02-22T10:00:12.828Z,60.90
2017-02-22T10:01:12.904Z,60.90
2017-02-22T10:02:13.519Z,61.86
2017-02-22T10:03:13.315Z,62.09
2017-02-22T10:04:12.364Z,62.19
2017-02-22T10:05:11.510Z,62.24
2017-02-22T10:06:13.214Z,61.27
2017-02-22T10:07:13.117Z,61.17
2017-02-22T10:08:12.044Z,61.99
2017-02-22T10:09:12.136Z,62.15
2017-02-22T10:10:13.450Z,62.21
2017-02-22T10:11:12.465Z,62.23
2017-02-22T10:12:15.545Z,62.24
2017-02-22T10:13:13.067Z,62.27
2017-02-22T10:14:12.689Z,62.24
2017-02-22T10:15:13.338Z,62.29
2017-02-22T10:16:12.865Z,62.31
2017-02-22T10:17:13.729Z,62.31
2017-02-22T10:18:12.718Z,62.31
2017-02-22T10:19:12.728Z,62.29
2017-02-22T10:20:11.682Z,62.29
2017-02-22T10:21:12.795Z,62.29
2017-02-22T10:22:12.001Z,62.31
2017-02-22T10:23:13.535Z,61.29
2017-02-22T10:24:13.203Z,61.06
2017-02-22T10:25:12.349Z,61.01
2017-02-22T10:26:13.026Z,61.85
2017-02-22T10:27:12.389Z,62.03
2017-02-22T10:28:12.330Z,62.10
2017-02-22T10:29:12.336Z,62.17
2017-02-22T10:30:11.367Z,62.18
2017-02-22T10:31:12.622Z,62.15
2017-02-22T10:32:13.278Z,62.16
2017-02-22T10:33:12.368Z,62.17
2017-02-22T10:34:13.054Z,62.17
2017-02-22T10:35:14.097Z,62.19
2017-02-22T10:36:12.324Z,62.22
2017-02-22T10:37:12.475Z,62.22
2017-02-22T10:38:11.352Z,62.26
2017-02-22T10:39:14.215Z,61.37
2017-02-22T10:40:13.023Z,61.07
2017-02-22T10:41:12.138Z,61.00
2017-02-22T10:42:12.884Z,61.20
2017-02-22T10:43:13.008Z,61.88
2017-02-22T10:44:14.213Z,62.06
2017-02-22T10:45:13.944Z,62.16
2017-02-22T10:46:12.629Z,62.19
2017-02-22T10:47:13.416Z,62.19
2017-02-22T10:48:12.353Z,62.23
2017-02-22T10:49:13.015Z,62.27
2017-02-22T10:50:12.137Z,62.26
2017-02-22T10:51:14.065Z,62.25
2017-02-22T10:52:12.144Z,62.27
2017-02-22T10:53:12.323Z,62.27
2017-02-22T10:54:14.388Z,62.26
2017-02-22T10:55:13.343Z,62.27
2017-02-22T10:56:12.945Z,62.14
2017-02-22T10:57:12.172Z,61.33
2017-02-22T10:58:12.988Z,61.10
2017-02-22T10:59:12.067Z,61.96
2017-02-22T11:00:14.006Z,62.11
2017-02-22T11:01:12.878Z,62.19
2017-02-22T11:02:13.545Z,62.20
2017-02-22T11:03:13.026Z,62.18
2017-02-22T11:04:12.907Z,62.21
2017-02-22T11:05:12.122Z,62.19
2017-02-22T11:06:13.191Z,62.21
2017-02-22T11:07:12.828Z,62.21
2017-02-22T11:08:14.457Z,62.25
2017-02-22T11:09:13.089Z,62.22
2017-02-22T11:10:12.893Z,62.21
2017-02-22T11:11:12.988Z,62.23
2017-02-22T11:12:11.019Z,62.23
2017-02-22T11:13:12.759Z,62.22
2017-02-22T11:14:13.372Z,62.25
2017-02-22T11:15:14.528Z,62.20
2017-02-22T11:16:12.674Z,62.18
2017-02-22T11:17:14.107Z,62.20
2017-02-22T11:18:12.789Z,62.21
2017-02-22T11:19:12.926Z,62.20
2017-02-22T11:20:12.412Z,62.20
2017-02-22T11:21:13.233Z,62.19
2017-02-22T11:22:13.005Z,62.17
2017-02-22T11:23:12.143Z,62.18
2017-02-22T11:24:12.932Z,62.15
2017-02-22T11:25:12.058Z,62.13
2017-02-22T11:26:12.315Z,62.13
2017-02-22T11:27:13.063Z,62.07
2017-02-22T11:28:12.158Z,61.20
2017-02-22T11:29:10.346Z,61.00
2017-02-22T11:30:12.601Z,60.78
2017-02-22T11:31:12.599Z,60.73
2017-02-22T11:32:11.467Z,60.72
2017-02-22T11:33:13.384Z,61.59
2017-02-22T11:34:12.763Z,61.75
2017-02-22T11:35:13.013Z,61.81
2017-02-22T11:36:12.877Z,61.85
2017-02-22T11:37:14.454Z,61.87
2017-02-22T11:38:12.608Z,61.85
2017-02-22T11:39:14.737Z,61.87
2017-02-22T11:40:12.903Z,61.86
2017-02-22T11:41:12.992Z,61.85
2017-02-22T11:42:12.888Z,61.86
2017-02-22T11:43:13.406Z,61.84
2017-02-22T11:44:12.744Z,61.82
2017-02-22T11:45:13.126Z,61.82
2017-02-22T11:46:10.777Z,61.82
2017-02-22T11:47:12.978Z,61.81
2017-02-22T11:48:12.893Z,61.82
2017-02-22T11:49:12.965Z,61.84
2017-02-22T11:50:12.606Z,61.83
2017-02-22T11:51:13.250Z,61.82
2017-02-22T11:52:12.785Z,61.83
2017-02-22T11:53:13.162Z,61.83
2017-02-22T11:54:12.863Z,61.84
2017-02-22T11:55:11.049Z,61.85
2017-02-22T11:56:10.978Z,61.82
2017-02-22T11:57:12.853Z,61.84
2017-02-22T11:58:12.839Z,61.80
2017-02-22T11:59:12.956Z,61.82
2017-02-22T12:00:12.834Z,62.02
2017-02-22T12:01:13.482Z,61.89
2017-02-22T12:02:14.241Z,61.91
2017-02-22T12:03:12.993Z,61.94
2017-02-22T12:04:13.931Z,61.91
2017-02-22T12:05:12.967Z,61.95
2017-02-22T12:06:12.663Z,61.93
2017-02-22T12:07:13.002Z,61.88
2017-02-22T12:08:10.726Z,61.91
2017-02-22T12:09:13.445Z,61.81
2017-02-22T12:10:13.427Z,61.81
2017-02-22T12:11:12.415Z,61.81
2017-02-22T12:12:13.504Z,61.78
2017-02-22T12:13:12.757Z,61.78
2017-02-22T12:14:13.368Z,61.76
2017-02-22T12:15:13.255Z,61.75
2017-02-22T12:16:12.983Z,61.74
2017-02-22T12:17:12.642Z,61.60
2017-02-22T12:18:12.616Z,60.73
2017-02-22T12:19:10.723Z,60.51
2017-02-22T12:20:12.988Z,60.40
2017-02-22T12:21:12.834Z,60.31
2017-02-22T12:22:12.811Z,60.26
2017-02-22T12:23:12.847Z,60.23
2017-02-22T12:24:13.662Z,60.21
2017-02-22T12:25:13.289Z,61.13
2017-02-22T12:26:12.958Z,61.31
2017-02-22T12:27:11.066Z,61.43
2017-02-22T12:28:12.913Z,61.46
2017-02-22T12:29:13.320Z,61.49
2017-02-22T12:30:13.042Z,61.50
2017-02-22T12:31:12.341Z,61.49
2017-02-22T12:32:13.832Z,61.49
2017-02-22T12:33:13.432Z,61.50
2017-02-22T12:34:13.948Z,61.50
2017-02-22T12:35:12.128Z,61.49
2017-02-22T12:36:14.144Z,61.48
2017-02-22T12:37:13.135Z,61.48
2017-02-22T12:38:12.184Z,61.48
2017-02-22T12:39:12.693Z,61.46
2017-02-22T12:40:13.365Z,61.47
2017-02-22T12:41:12.358Z,61.46
2017-02-22T12:42:14.173Z,61.47
2017-02-22T12:43:12.416Z,61.46
2017-02-22T12:44:15.174Z,61.45
2017-02-22T12:45:12.354Z,61.45
2017-02-22T12:46:12.434Z,61.44
2017-02-22T12:47:12.983Z,61.44
2017-02-22T12:48:12.166Z,61.44
2017-02-22T12:49:12.511Z,61.44
2017-02-22T12:50:12.548Z,61.44
2017-02-22T12:51:17.037Z,61.43
2017-02-22T12:52:12.858Z,61.42